sensor_id;sensor_type;location;lat;lon;timestamp;P1;durP1;ratioP1;P2;durP2;ratioP2
47329;SDS011;33060;50.178;7.570;2023-02-05T00:00:19;16.67;;;7.07;;
47329;SDS011;33060;50.178;7.570;2023-02-05T00:02:46;19.00;;;6.90;;
47329;SDS011;33060;50.178;7.570;2023-02-05T00:05:13;18.77;;;8.47;;
47329;SDS011;33060;50.178;7.570;2023-02-05T00:07:39;14.27;;;7.37;;
47329;SDS011;33060;50.178;7.570;2023-02-05T00:10:06;15.10;;;8.70;;
47329;SDS011;33060;50.178;7.570;2023-02-05T00:12:33;17.10;;;7.83;;
47329;SDS011;33060;50.178;7.570;2023-02-05T00:14:59;15.07;;;7.77;;
47329;SDS011;33060;50.178;7.570;2023-02-05T00:17:26;15.80;;;7.63;;
47329;SDS011;33060;50.178;7.570;2023-02-05T00:19:53;16.70;;;7.17;;
47329;SDS011;33060;50.178;7.570;2023-02-05T00:22:20;14.57;;;7.30;;
47329;SDS011;33060;50.178;7.570;2023-02-05T00:24:47;11.77;;;7.10;;
47329;SDS011;33060;50.178;7.570;2023-02-05T00:27:14;14.43;;;7.20;;
47329;SDS011;33060;50.178;7.570;2023-02-05T00:29:41;14.93;;;7.03;;
47329;SDS011;33060;50.178;7.570;2023-02-05T00:32:07;16.10;;;7.70;;
47329;SDS011;33060;50.178;7.570;2023-02-05T00:34:34;20.63;;;8.27;;
47329;SDS011;33060;50.178;7.570;2023-02-05T00:37:01;13.27;;;7.63;;
47329;SDS011;33060;50.178;7.570;2023-02-05T00:39:27;14.50;;;7.47;;
47329;SDS011;33060;50.178;7.570;2023-02-05T00:41:54;14.00;;;7.33;;
47329;SDS011;33060;50.178;7.570;2023-02-05T00:44:22;17.50;;;7.70;;
47329;SDS011;33060;50.178;7.570;2023-02-05T00:46:49;15.40;;;6.43;;
47329;SDS011;33060;50.178;7.570;2023-02-05T00:49:16;15.73;;;6.97;;
47329;SDS011;33060;50.178;7.570;2023-02-05T00:51:42;17.93;;;7.70;;
47329;SDS011;33060;50.178;7.570;2023-02-05T00:54:09;15.27;;;7.53;;
47329;SDS011;33060;50.178;7.570;2023-02-05T00:56:35;14.87;;;8.17;;
47329;SDS011;33060;50.178;7.570;2023-02-05T00:59:02;18.97;;;9.30;;
47329;SDS011;33060;50.178;7.570;2023-02-05T01:01:29;14.90;;;8.20;;
47329;SDS011;33060;50.178;7.570;2023-02-05T01:03:56;17.70;;;7.27;;
47329;SDS011;33060;50.178;7.570;2023-02-05T01:06:23;18.33;;;7.90;;
47329;SDS011;33060;50.178;7.570;2023-02-05T01:08:49;16.40;;;7.00;;
47329;SDS011;33060;50.178;7.570;2023-02-05T01:11:16;14.37;;;7.07;;
47329;SDS011;33060;50.178;7.570;2023-02-05T01:13:43;23.30;;;6.87;;
47329;SDS011;33060;50.178;7.570;2023-02-05T01:16:09;19.90;;;7.10;;
47329;SDS011;33060;50.178;7.570;2023-02-05T01:18:37;15.43;;;6.63;;
47329;SDS011;33060;50.178;7.570;2023-02-05T01:21:04;14.50;;;6.83;;
47329;SDS011;33060;50.178;7.570;2023-02-05T01:23:30;15.10;;;7.53;;
47329;SDS011;33060;50.178;7.570;2023-02-05T01:25:57;14.17;;;7.90;;
47329;SDS011;33060;50.178;7.570;2023-02-05T01:28:24;17.37;;;7.83;;
47329;SDS011;33060;50.178;7.570;2023-02-05T01:30:50;19.33;;;7.53;;
47329;SDS011;33060;50.178;7.570;2023-02-05T01:33:17;20.23;;;7.93;;
47329;SDS011;33060;50.178;7.570;2023-02-05T01:35:44;16.63;;;7.07;;
47329;SDS011;33060;50.178;7.570;2023-02-05T01:38:11;20.90;;;7.50;;
47329;SDS011;33060;50.178;7.570;2023-02-05T01:40:39;18.17;;;7.30;;
47329;SDS011;33060;50.178;7.570;2023-02-05T01:43:11;19.27;;;7.30;;
47329;SDS011;33060;50.178;7.570;2023-02-05T01:45:43;17.10;;;7.57;;
47329;SDS011;33060;50.178;7.570;2023-02-05T01:48:21;16.43;;;7.43;;
47329;SDS011;33060;50.178;7.570;2023-02-05T01:50:54;18.07;;;7.73;;
47329;SDS011;33060;50.178;7.570;2023-02-05T01:53:25;17.53;;;7.80;;
47329;SDS011;33060;50.178;7.570;2023-02-05T01:58:28;19.93;;;8.53;;
47329;SDS011;33060;50.178;7.570;2023-02-05T02:00:57;17.93;;;7.33;;
47329;SDS011;33060;50.178;7.570;2023-02-05T02:03:25;18.67;;;7.47;;
47329;SDS011;33060;50.178;7.570;2023-02-05T02:05:55;17.70;;;8.17;;
47329;SDS011;33060;50.178;7.570;2023-02-05T02:08:22;20.10;;;7.80;;
47329;SDS011;33060;50.178;7.570;2023-02-05T02:10:50;15.03;;;7.57;;
47329;SDS011;33060;50.178;7.570;2023-02-05T02:13:19;17.80;;;7.73;;
47329;SDS011;33060;50.178;7.570;2023-02-05T02:15:48;18.17;;;7.33;;
47329;SDS011;33060;50.178;7.570;2023-02-05T02:18:15;22.57;;;7.80;;
47329;SDS011;33060;50.178;7.570;2023-02-05T02:26:25;15.37;;;7.03;;
47329;SDS011;33060;50.178;7.570;2023-02-05T02:29:09;21.47;;;7.80;;
47329;SDS011;33060;50.178;7.570;2023-02-05T02:31:45;21.17;;;7.60;;
47329;SDS011;33060;50.178;7.570;2023-02-05T02:34:29;16.17;;;7.13;;
47329;SDS011;33060;50.178;7.570;2023-02-05T02:37:06;17.87;;;7.50;;
47329;SDS011;33060;50.178;7.570;2023-02-05T02:39:38;16.60;;;7.60;;
47329;SDS011;33060;50.178;7.570;2023-02-05T02:42:12;13.77;;;6.90;;
47329;SDS011;33060;50.178;7.570;2023-02-05T02:44:55;17.30;;;7.73;;
47329;SDS011;33060;50.178;7.570;2023-02-05T02:47:27;18.73;;;7.63;;
47329;SDS011;33060;50.178;7.570;2023-02-05T02:50:20;18.37;;;7.23;;
47329;SDS011;33060;50.178;7.570;2023-02-05T02:52:50;18.23;;;7.33;;
47329;SDS011;33060;50.178;7.570;2023-02-05T02:55:18;19.30;;;7.43;;
47329;SDS011;33060;50.178;7.570;2023-02-05T02:57:48;18.10;;;7.80;;
47329;SDS011;33060;50.178;7.570;2023-02-05T03:00:22;17.57;;;8.13;;
47329;SDS011;33060;50.178;7.570;2023-02-05T03:02:53;15.23;;;8.53;;
47329;SDS011;33060;50.178;7.570;2023-02-05T03:05:26;17.20;;;7.63;;
47329;SDS011;33060;50.178;7.570;2023-02-05T03:07:57;22.33;;;7.90;;
47329;SDS011;33060;50.178;7.570;2023-02-05T03:10:33;16.30;;;8.03;;
47329;SDS011;33060;50.178;7.570;2023-02-05T03:13:07;17.77;;;7.97;;
47329;SDS011;33060;50.178;7.570;2023-02-05T03:15:37;17.87;;;8.03;;
47329;SDS011;33060;50.178;7.570;2023-02-05T03:18:06;20.97;;;8.70;;
47329;SDS011;33060;50.178;7.570;2023-02-05T03:20:50;17.67;;;8.43;;
47329;SDS011;33060;50.178;7.570;2023-02-05T03:23:18;21.13;;;8.60;;
47329;SDS011;33060;50.178;7.570;2023-02-05T03:25:46;20.97;;;7.90;;
47329;SDS011;33060;50.178;7.570;2023-02-05T03:28:15;17.07;;;7.50;;
47329;SDS011;33060;50.178;7.570;2023-02-05T03:33:40;22.77;;;8.33;;
47329;SDS011;33060;50.178;7.570;2023-02-05T03:38:59;22.33;;;9.13;;
47329;SDS011;33060;50.178;7.570;2023-02-05T03:50:28;21.70;;;8.20;;
47329;SDS011;33060;50.178;7.570;2023-02-05T03:55:49;19.53;;;7.97;;
47329;SDS011;33060;50.178;7.570;2023-02-05T03:58:24;22.63;;;8.13;;
47329;SDS011;33060;50.178;7.570;2023-02-05T04:00:54;16.83;;;7.87;;
47329;SDS011;33060;50.178;7.570;2023-02-05T04:03:21;17.80;;;8.43;;
47329;SDS011;33060;50.178;7.570;2023-02-05T04:05:49;18.57;;;8.77;;
47329;SDS011;33060;50.178;7.570;2023-02-05T04:08:17;18.90;;;7.87;;
47329;SDS011;33060;50.178;7.570;2023-02-05T04:10:48;18.93;;;8.43;;
47329;SDS011;33060;50.178;7.570;2023-02-05T04:13:15;18.87;;;8.33;;
47329;SDS011;33060;50.178;7.570;2023-02-05T04:15:42;24.17;;;8.70;;
47329;SDS011;33060;50.178;7.570;2023-02-05T04:18:11;24.73;;;8.03;;
47329;SDS011;33060;50.178;7.570;2023-02-05T04:20:37;14.73;;;8.40;;
47329;SDS011;33060;50.178;7.570;2023-02-05T04:23:06;20.33;;;7.43;;
47329;SDS011;33060;50.178;7.570;2023-02-05T04:25:35;19.87;;;9.33;;
47329;SDS011;33060;50.178;7.570;2023-02-05T04:28:03;17.70;;;7.73;;
47329;SDS011;33060;50.178;7.570;2023-02-05T04:30:32;20.87;;;8.33;;
47329;SDS011;33060;50.178;7.570;2023-02-05T04:32:59;26.33;;;9.10;;
47329;SDS011;33060;50.178;7.570;2023-02-05T04:35:27;22.93;;;9.33;;
47329;SDS011;33060;50.178;7.570;2023-02-05T04:37:54;24.57;;;9.10;;
47329;SDS011;33060;50.178;7.570;2023-02-05T04:40:21;23.00;;;9.13;;
47329;SDS011;33060;50.178;7.570;2023-02-05T04:42:48;17.13;;;8.23;;
47329;SDS011;33060;50.178;7.570;2023-02-05T04:45:14;23.10;;;9.43;;
47329;SDS011;33060;50.178;7.570;2023-02-05T04:47:41;21.00;;;9.40;;
47329;SDS011;33060;50.178;7.570;2023-02-05T04:50:07;19.97;;;9.43;;
47329;SDS011;33060;50.178;7.570;2023-02-05T04:52:34;18.10;;;8.50;;
47329;SDS011;33060;50.178;7.570;2023-02-05T04:55:01;21.63;;;9.10;;
47329;SDS011;33060;50.178;7.570;2023-02-05T04:57:28;16.07;;;8.60;;
47329;SDS011;33060;50.178;7.570;2023-02-05T04:59:56;16.00;;;9.30;;
47329;SDS011;33060;50.178;7.570;2023-02-05T05:02:23;17.73;;;9.03;;
47329;SDS011;33060;50.178;7.570;2023-02-05T05:04:49;18.70;;;8.30;;
47329;SDS011;33060;50.178;7.570;2023-02-05T05:07:16;17.33;;;8.63;;
47329;SDS011;33060;50.178;7.570;2023-02-05T05:09:43;17.37;;;8.50;;
47329;SDS011;33060;50.178;7.570;2023-02-05T05:12:09;16.40;;;8.37;;
47329;SDS011;33060;50.178;7.570;2023-02-05T05:14:36;18.60;;;8.53;;
47329;SDS011;33060;50.178;7.570;2023-02-05T05:17:03;20.50;;;8.80;;
47329;SDS011;33060;50.178;7.570;2023-02-05T05:19:29;17.20;;;9.17;;
47329;SDS011;33060;50.178;7.570;2023-02-05T05:22:06;18.47;;;9.07;;
47329;SDS011;33060;50.178;7.570;2023-02-05T05:24:33;19.63;;;8.40;;
47329;SDS011;33060;50.178;7.570;2023-02-05T05:26:59;19.63;;;9.23;;
47329;SDS011;33060;50.178;7.570;2023-02-05T05:29:26;17.60;;;8.73;;
47329;SDS011;33060;50.178;7.570;2023-02-05T05:31:53;18.97;;;9.30;;
47329;SDS011;33060;50.178;7.570;2023-02-05T05:34:19;24.23;;;9.57;;
47329;SDS011;33060;50.178;7.570;2023-02-05T05:36:46;18.80;;;9.57;;
47329;SDS011;33060;50.178;7.570;2023-02-05T05:39:13;22.40;;;9.23;;
47329;SDS011;33060;50.178;7.570;2023-02-05T05:41:59;18.63;;;9.73;;
47329;SDS011;33060;50.178;7.570;2023-02-05T05:44:44;25.23;;;10.37;;
47329;SDS011;33060;50.178;7.570;2023-02-05T05:47:15;31.37;;;10.53;;
47329;SDS011;33060;50.178;7.570;2023-02-05T05:49:42;42.60;;;11.43;;
47329;SDS011;33060;50.178;7.570;2023-02-05T05:52:08;30.73;;;10.57;;
47329;SDS011;33060;50.178;7.570;2023-02-05T05:54:36;158.40;;;18.07;;
47329;SDS011;33060;50.178;7.570;2023-02-05T05:57:02;70.03;;;13.13;;
47329;SDS011;33060;50.178;7.570;2023-02-05T05:59:29;42.30;;;11.93;;
47329;SDS011;33060;50.178;7.570;2023-02-05T06:01:56;78.23;;;12.20;;
47329;SDS011;33060;50.178;7.570;2023-02-05T06:04:23;50.27;;;11.90;;
47329;SDS011;33060;50.178;7.570;2023-02-05T06:06:49;44.30;;;11.80;;
47329;SDS011;33060;50.178;7.570;2023-02-05T06:09:16;87.80;;;14.13;;
47329;SDS011;33060;50.178;7.570;2023-02-05T06:11:43;54.47;;;12.60;;
47329;SDS011;33060;50.178;7.570;2023-02-05T06:14:09;73.50;;;13.13;;
47329;SDS011;33060;50.178;7.570;2023-02-05T06:16:36;56.73;;;12.63;;
47329;SDS011;33060;50.178;7.570;2023-02-05T06:19:09;33.57;;;11.20;;
47329;SDS011;33060;50.178;7.570;2023-02-05T06:21:36;37.70;;;11.33;;
47329;SDS011;33060;50.178;7.570;2023-02-05T06:24:04;44.63;;;16.13;;
47329;SDS011;33060;50.178;7.570;2023-02-05T06:26:31;58.43;;;19.33;;
47329;SDS011;33060;50.178;7.570;2023-02-05T06:28:58;33.23;;;16.37;;
47329;SDS011;33060;50.178;7.570;2023-02-05T06:31:29;25.67;;;12.53;;
47329;SDS011;33060;50.178;7.570;2023-02-05T06:33:56;25.63;;;11.70;;
47329;SDS011;33060;50.178;7.570;2023-02-05T06:36:23;18.33;;;10.43;;
47329;SDS011;33060;50.178;7.570;2023-02-05T06:38:49;25.47;;;12.97;;
47329;SDS011;33060;50.178;7.570;2023-02-05T06:41:16;23.77;;;12.47;;
47329;SDS011;33060;50.178;7.570;2023-02-05T06:43:43;31.73;;;12.67;;
47329;SDS011;33060;50.178;7.570;2023-02-05T06:46:09;21.17;;;10.93;;
47329;SDS011;33060;50.178;7.570;2023-02-05T06:48:36;26.33;;;11.23;;
47329;SDS011;33060;50.178;7.570;2023-02-05T06:51:03;18.27;;;10.77;;
47329;SDS011;33060;50.178;7.570;2023-02-05T06:53:29;22.27;;;10.77;;
47329;SDS011;33060;50.178;7.570;2023-02-05T06:55:57;21.63;;;10.10;;
47329;SDS011;33060;50.178;7.570;2023-02-05T06:58:24;18.90;;;9.53;;
47329;SDS011;33060;50.178;7.570;2023-02-05T07:00:50;19.23;;;9.77;;
47329;SDS011;33060;50.178;7.570;2023-02-05T07:03:17;19.13;;;9.00;;
47329;SDS011;33060;50.178;7.570;2023-02-05T07:05:44;16.50;;;9.47;;
47329;SDS011;33060;50.178;7.570;2023-02-05T07:08:10;16.67;;;9.53;;
47329;SDS011;33060;50.178;7.570;2023-02-05T07:10:37;19.40;;;9.23;;
47329;SDS011;33060;50.178;7.570;2023-02-05T07:13:03;15.60;;;7.87;;
47329;SDS011;33060;50.178;7.570;2023-02-05T07:15:31;17.30;;;9.33;;
47329;SDS011;33060;50.178;7.570;2023-02-05T07:18:00;16.80;;;10.47;;
47329;SDS011;33060;50.178;7.570;2023-02-05T07:20:27;18.10;;;8.80;;
47329;SDS011;33060;50.178;7.570;2023-02-05T07:22:54;20.67;;;10.40;;
47329;SDS011;33060;50.178;7.570;2023-02-05T07:25:20;16.20;;;9.40;;
47329;SDS011;33060;50.178;7.570;2023-02-05T07:27:47;9.40;;;6.40;;
47329;SDS011;33060;50.178;7.570;2023-02-05T07:30:14;10.57;;;6.27;;
47329;SDS011;33060;50.178;7.570;2023-02-05T07:32:41;10.00;;;7.10;;
47329;SDS011;33060;50.178;7.570;2023-02-05T07:35:07;12.10;;;8.30;;
47329;SDS011;33060;50.178;7.570;2023-02-05T07:37:34;10.47;;;7.03;;
47329;SDS011;33060;50.178;7.570;2023-02-05T07:40:02;12.50;;;7.37;;
47329;SDS011;33060;50.178;7.570;2023-02-05T07:42:29;10.73;;;6.87;;
47329;SDS011;33060;50.178;7.570;2023-02-05T07:44:59;10.17;;;6.70;;
47329;SDS011;33060;50.178;7.570;2023-02-05T07:47:26;10.97;;;6.37;;
47329;SDS011;33060;50.178;7.570;2023-02-05T07:49:52;10.47;;;5.90;;
47329;SDS011;33060;50.178;7.570;2023-02-05T07:52:19;10.57;;;6.63;;
47329;SDS011;33060;50.178;7.570;2023-02-05T07:54:46;11.27;;;6.80;;
47329;SDS011;33060;50.178;7.570;2023-02-05T07:57:12;9.50;;;6.47;;
47329;SDS011;33060;50.178;7.570;2023-02-05T07:59:39;11.87;;;6.67;;
47329;SDS011;33060;50.178;7.570;2023-02-05T08:02:06;8.30;;;6.50;;
47329;SDS011;33060;50.178;7.570;2023-02-05T08:04:32;9.23;;;5.83;;
47329;SDS011;33060;50.178;7.570;2023-02-05T08:06:59;9.67;;;5.70;;
47329;SDS011;33060;50.178;7.570;2023-02-05T08:09:26;8.33;;;5.97;;
47329;SDS011;33060;50.178;7.570;2023-02-05T08:11:52;10.47;;;6.33;;
47329;SDS011;33060;50.178;7.570;2023-02-05T08:14:19;10.83;;;7.50;;
47329;SDS011;33060;50.178;7.570;2023-02-05T08:16:46;12.70;;;7.57;;
47329;SDS011;33060;50.178;7.570;2023-02-05T08:19:13;14.40;;;8.57;;
47329;SDS011;33060;50.178;7.570;2023-02-05T08:21:41;14.37;;;9.10;;
47329;SDS011;33060;50.178;7.570;2023-02-05T08:24:08;16.57;;;9.43;;
47329;SDS011;33060;50.178;7.570;2023-02-05T08:26:35;12.57;;;8.40;;
47329;SDS011;33060;50.178;7.570;2023-02-05T08:29:02;12.93;;;8.43;;
47329;SDS011;33060;50.178;7.570;2023-02-05T08:31:29;12.60;;;9.13;;
47329;SDS011;33060;50.178;7.570;2023-02-05T08:33:55;13.07;;;8.67;;
47329;SDS011;33060;50.178;7.570;2023-02-05T08:36:25;15.73;;;9.07;;
47329;SDS011;33060;50.178;7.570;2023-02-05T08:38:52;14.87;;;8.77;;
47329;SDS011;33060;50.178;7.570;2023-02-05T08:41:19;20.57;;;10.43;;
47329;SDS011;33060;50.178;7.570;2023-02-05T08:43:47;12.73;;;9.53;;
47329;SDS011;33060;50.178;7.570;2023-02-05T08:46:16;17.07;;;10.70;;
47329;SDS011;33060;50.178;7.570;2023-02-05T08:48:45;17.77;;;11.17;;
47329;SDS011;33060;50.178;7.570;2023-02-05T08:51:13;16.93;;;11.73;;
47329;SDS011;33060;50.178;7.570;2023-02-05T08:53:41;15.10;;;10.30;;
47329;SDS011;33060;50.178;7.570;2023-02-05T08:56:08;13.47;;;9.63;;
47329;SDS011;33060;50.178;7.570;2023-02-05T08:58:36;18.57;;;10.53;;
47329;SDS011;33060;50.178;7.570;2023-02-05T09:01:05;17.17;;;9.90;;
47329;SDS011;33060;50.178;7.570;2023-02-05T09:03:37;15.93;;;9.50;;
47329;SDS011;33060;50.178;7.570;2023-02-05T09:06:08;14.13;;;10.00;;
47329;SDS011;33060;50.178;7.570;2023-02-05T09:08:37;12.63;;;8.10;;
47329;SDS011;33060;50.178;7.570;2023-02-05T09:11:04;16.63;;;11.03;;
47329;SDS011;33060;50.178;7.570;2023-02-05T09:13:32;15.03;;;9.93;;
47329;SDS011;33060;50.178;7.570;2023-02-05T09:15:59;10.50;;;7.20;;
47329;SDS011;33060;50.178;7.570;2023-02-05T09:18:26;13.07;;;8.13;;
47329;SDS011;33060;50.178;7.570;2023-02-05T09:20:52;9.40;;;7.03;;
47329;SDS011;33060;50.178;7.570;2023-02-05T09:23:20;15.37;;;9.90;;
47329;SDS011;33060;50.178;7.570;2023-02-05T09:25:47;10.30;;;7.20;;
47329;SDS011;33060;50.178;7.570;2023-02-05T09:28:14;12.13;;;8.93;;
47329;SDS011;33060;50.178;7.570;2023-02-05T09:30:42;10.87;;;7.50;;
47329;SDS011;33060;50.178;7.570;2023-02-05T09:33:10;9.50;;;7.63;;
47329;SDS011;33060;50.178;7.570;2023-02-05T09:35:38;12.67;;;9.63;;
47329;SDS011;33060;50.178;7.570;2023-02-05T09:38:04;10.17;;;7.37;;
47329;SDS011;33060;50.178;7.570;2023-02-05T09:40:34;10.77;;;7.87;;
47329;SDS011;33060;50.178;7.570;2023-02-05T09:51:43;12.23;;;7.03;;
47329;SDS011;33060;50.178;7.570;2023-02-05T09:54:20;14.67;;;9.00;;
47329;SDS011;33060;50.178;7.570;2023-02-05T09:56:52;13.97;;;10.30;;
47329;SDS011;33060;50.178;7.570;2023-02-05T09:59:23;13.77;;;9.97;;
47329;SDS011;33060;50.178;7.570;2023-02-05T10:01:53;11.13;;;8.33;;
47329;SDS011;33060;50.178;7.570;2023-02-05T10:04:24;13.60;;;10.13;;
47329;SDS011;33060;50.178;7.570;2023-02-05T10:07:00;16.77;;;12.63;;
47329;SDS011;33060;50.178;7.570;2023-02-05T10:18:21;17.83;;;11.83;;
47329;SDS011;33060;50.178;7.570;2023-02-05T10:26:58;13.73;;;10.23;;
47329;SDS011;33060;50.178;7.570;2023-02-05T10:29:28;12.87;;;9.87;;
47329;SDS011;33060;50.178;7.570;2023-02-05T10:34:54;13.67;;;8.90;;
47329;SDS011;33060;50.178;7.570;2023-02-05T10:37:27;11.47;;;8.20;;
47329;SDS011;33060;50.178;7.570;2023-02-05T10:40:00;11.73;;;8.50;;
47329;SDS011;33060;50.178;7.570;2023-02-05T10:42:33;12.17;;;9.97;;
47329;SDS011;33060;50.178;7.570;2023-02-05T10:45:11;10.83;;;8.27;;
47329;SDS011;33060;50.178;7.570;2023-02-05T10:53:23;14.37;;;10.77;;
47329;SDS011;33060;50.178;7.570;2023-02-05T10:55:52;13.73;;;9.27;;
47329;SDS011;33060;50.178;7.570;2023-02-05T10:58:35;13.63;;;10.77;;
47329;SDS011;33060;50.178;7.570;2023-02-05T11:01:10;12.10;;;9.40;;
47329;SDS011;33060;50.178;7.570;2023-02-05T11:03:48;15.93;;;11.23;;
47329;SDS011;33060;50.178;7.570;2023-02-05T11:06:40;7.03;;;5.70;;
47329;SDS011;33060;50.178;7.570;2023-02-05T11:12:00;5.47;;;4.50;;
47329;SDS011;33060;50.178;7.570;2023-02-05T11:14:34;5.73;;;4.83;;
47329;SDS011;33060;50.178;7.570;2023-02-05T11:17:08;4.70;;;4.30;;
47329;SDS011;33060;50.178;7.570;2023-02-05T11:19:55;3.83;;;3.33;;
47329;SDS011;33060;50.178;7.570;2023-02-05T11:22:32;4.93;;;3.23;;
47329;SDS011;33060;50.178;7.570;2023-02-05T11:25:15;3.40;;;2.63;;
47329;SDS011;33060;50.178;7.570;2023-02-05T11:38:25;3.97;;;3.40;;
47329;SDS011;33060;50.178;7.570;2023-02-05T11:41:05;4.47;;;3.60;;
47329;SDS011;33060;50.178;7.570;2023-02-05T11:43:34;4.97;;;3.47;;
47329;SDS011;33060;50.178;7.570;2023-02-05T11:46:05;3.37;;;2.83;;
47329;SDS011;33060;50.178;7.570;2023-02-05T11:51:54;2.30;;;1.90;;
47329;SDS011;33060;50.178;7.570;2023-02-05T11:56:41;2.67;;;2.40;;
47329;SDS011;33060;50.178;7.570;2023-02-05T11:59:17;2.20;;;1.83;;
47329;SDS011;33060;50.178;7.570;2023-02-05T12:01:47;2.80;;;2.37;;
47329;SDS011;33060;50.178;7.570;2023-02-05T12:04:16;2.80;;;2.60;;
47329;SDS011;33060;50.178;7.570;2023-02-05T12:06:59;3.07;;;2.27;;
47329;SDS011;33060;50.178;7.570;2023-02-05T12:09:31;2.07;;;1.87;;
47329;SDS011;33060;50.178;7.570;2023-02-05T12:20:37;2.93;;;2.30;;
47329;SDS011;33060;50.178;7.570;2023-02-05T12:31:35;2.80;;;2.00;;
47329;SDS011;33060;50.178;7.570;2023-02-05T12:40:31;3.40;;;2.20;;
47329;SDS011;33060;50.178;7.570;2023-02-05T12:43:32;2.57;;;2.37;;
47329;SDS011;33060;50.178;7.570;2023-02-05T12:46:08;2.43;;;1.93;;
47329;SDS011;33060;50.178;7.570;2023-02-05T12:57:58;3.23;;;2.00;;
47329;SDS011;33060;50.178;7.570;2023-02-05T13:00:48;2.20;;;1.90;;
47329;SDS011;33060;50.178;7.570;2023-02-05T13:03:26;2.97;;;2.07;;
47329;SDS011;33060;50.178;7.570;2023-02-05T13:06:14;2.23;;;1.77;;
47329;SDS011;33060;50.178;7.570;2023-02-05T13:11:23;2.03;;;1.77;;
47329;SDS011;33060;50.178;7.570;2023-02-05T13:13:57;3.27;;;1.67;;
47329;SDS011;33060;50.178;7.570;2023-02-05T13:16:30;2.33;;;1.83;;
47329;SDS011;33060;50.178;7.570;2023-02-05T13:19:13;3.27;;;1.70;;
47329;SDS011;33060;50.178;7.570;2023-02-05T13:21:49;1.93;;;1.70;;
47329;SDS011;33060;50.178;7.570;2023-02-05T13:24:51;3.23;;;1.90;;
47329;SDS011;33060;50.178;7.570;2023-02-05T13:27:44;3.17;;;1.83;;
47329;SDS011;33060;50.178;7.570;2023-02-05T13:30:36;2.40;;;1.83;;
47329;SDS011;33060;50.178;7.570;2023-02-05T13:33:09;3.20;;;1.87;;
47329;SDS011;33060;50.178;7.570;2023-02-05T13:35:41;2.20;;;1.87;;
47329;SDS011;33060;50.178;7.570;2023-02-05T13:41:19;1.90;;;1.50;;
47329;SDS011;33060;50.178;7.570;2023-02-05T13:46:36;3.53;;;1.97;;
47329;SDS011;33060;50.178;7.570;2023-02-05T13:51:56;3.37;;;2.10;;
47329;SDS011;33060;50.178;7.570;2023-02-05T14:00:09;3.03;;;1.63;;
47329;SDS011;33060;50.178;7.570;2023-02-05T14:02:41;3.07;;;1.97;;
47329;SDS011;33060;50.178;7.570;2023-02-05T14:05:11;2.87;;;2.10;;
47329;SDS011;33060;50.178;7.570;2023-02-05T14:07:43;1.73;;;1.50;;
47329;SDS011;33060;50.178;7.570;2023-02-05T14:10:30;2.07;;;1.70;;
47329;SDS011;33060;50.178;7.570;2023-02-05T14:19:22;3.90;;;2.37;;
47329;SDS011;33060;50.178;7.570;2023-02-05T14:22:01;3.70;;;2.10;;
47329;SDS011;33060;50.178;7.570;2023-02-05T14:24:43;4.40;;;2.43;;
47329;SDS011;33060;50.178;7.570;2023-02-05T14:29:56;4.73;;;2.30;;
47329;SDS011;33060;50.178;7.570;2023-02-05T14:32:57;3.73;;;2.50;;
47329;SDS011;33060;50.178;7.570;2023-02-05T14:35:26;3.23;;;2.47;;
47329;SDS011;33060;50.178;7.570;2023-02-05T14:38:20;3.90;;;2.50;;
47329;SDS011;33060;50.178;7.570;2023-02-05T14:41:00;4.13;;;2.37;;
47329;SDS011;33060;50.178;7.570;2023-02-05T14:43:31;3.03;;;2.33;;
47329;SDS011;33060;50.178;7.570;2023-02-05T14:46:02;2.47;;;2.17;;
47329;SDS011;33060;50.178;7.570;2023-02-05T14:48:46;3.93;;;2.30;;
47329;SDS011;33060;50.178;7.570;2023-02-05T14:51:20;7.77;;;5.53;;
47329;SDS011;33060;50.178;7.570;2023-02-05T14:53:56;16.53;;;12.10;;
47329;SDS011;33060;50.178;7.570;2023-02-05T14:56:26;7.63;;;4.63;;
47329;SDS011;33060;50.178;7.570;2023-02-05T14:59:00;6.70;;;3.87;;
47329;SDS011;33060;50.178;7.570;2023-02-05T15:03:59;4.27;;;3.43;;
47329;SDS011;33060;50.178;7.570;2023-02-05T15:06:28;4.33;;;3.10;;
47329;SDS011;33060;50.178;7.570;2023-02-05T15:09:04;3.47;;;2.80;;
47329;SDS011;33060;50.178;7.570;2023-02-05T15:11:51;5.07;;;2.60;;
47329;SDS011;33060;50.178;7.570;2023-02-05T15:14:54;2.70;;;2.40;;
47329;SDS011;33060;50.178;7.570;2023-02-05T15:19:59;4.53;;;3.60;;
47329;SDS011;33060;50.178;7.570;2023-02-05T15:22:33;3.10;;;2.80;;
47329;SDS011;33060;50.178;7.570;2023-02-05T15:25:04;3.40;;;2.60;;
47329;SDS011;33060;50.178;7.570;2023-02-05T15:27:47;3.73;;;2.87;;
47329;SDS011;33060;50.178;7.570;2023-02-05T15:30:24;3.40;;;3.10;;
47329;SDS011;33060;50.178;7.570;2023-02-05T15:32:56;3.67;;;2.83;;
47329;SDS011;33060;50.178;7.570;2023-02-05T15:35:27;3.27;;;2.80;;
47329;SDS011;33060;50.178;7.570;2023-02-05T15:37:59;3.10;;;2.70;;
47329;SDS011;33060;50.178;7.570;2023-02-05T15:40:29;3.73;;;2.47;;
47329;SDS011;33060;50.178;7.570;2023-02-05T15:42:59;5.77;;;3.60;;
47329;SDS011;33060;50.178;7.570;2023-02-05T15:50:52;4.23;;;3.50;;
47329;SDS011;33060;50.178;7.570;2023-02-05T15:56:00;5.10;;;4.00;;
47329;SDS011;33060;50.178;7.570;2023-02-05T15:58:36;5.50;;;5.00;;
47329;SDS011;33060;50.178;7.570;2023-02-05T16:01:03;14.20;;;8.87;;
47329;SDS011;33060;50.178;7.570;2023-02-05T16:03:31;5.97;;;5.07;;
47329;SDS011;33060;50.178;7.570;2023-02-05T16:05:59;3.40;;;2.47;;
47329;SDS011;33060;50.178;7.570;2023-02-05T16:08:26;3.70;;;3.20;;
47329;SDS011;33060;50.178;7.570;2023-02-05T16:10:57;5.60;;;4.90;;
47329;SDS011;33060;50.178;7.570;2023-02-05T16:13:27;4.27;;;3.87;;
47329;SDS011;33060;50.178;7.570;2023-02-05T16:16:06;4.17;;;2.97;;
47329;SDS011;33060;50.178;7.570;2023-02-05T16:21:23;5.03;;;3.07;;
47329;SDS011;33060;50.178;7.570;2023-02-05T16:24:04;3.63;;;2.93;;
47329;SDS011;33060;50.178;7.570;2023-02-05T16:26:38;4.83;;;4.33;;
47329;SDS011;33060;50.178;7.570;2023-02-05T16:29:26;5.33;;;4.83;;
47329;SDS011;33060;50.178;7.570;2023-02-05T16:34:49;3.30;;;3.00;;
47329;SDS011;33060;50.178;7.570;2023-02-05T16:37:16;4.17;;;3.77;;
47329;SDS011;33060;50.178;7.570;2023-02-05T16:39:51;4.27;;;3.87;;
47329;SDS011;33060;50.178;7.570;2023-02-05T16:45:02;3.60;;;3.30;;
47329;SDS011;33060;50.178;7.570;2023-02-05T16:50:47;4.60;;;3.40;;
47329;SDS011;33060;50.178;7.570;2023-02-05T16:53:24;4.77;;;4.27;;
47329;SDS011;33060;50.178;7.570;2023-02-05T16:55:54;9.70;;;7.10;;
47329;SDS011;33060;50.178;7.570;2023-02-05T16:58:24;4.63;;;3.50;;
47329;SDS011;33060;50.178;7.570;2023-02-05T17:00:55;3.20;;;2.90;;
47329;SDS011;33060;50.178;7.570;2023-02-05T17:03:24;3.30;;;3.00;;
47329;SDS011;33060;50.178;7.570;2023-02-05T17:05:57;2.97;;;2.60;;
47329;SDS011;33060;50.178;7.570;2023-02-05T17:08:32;2.47;;;2.27;;
47329;SDS011;33060;50.178;7.570;2023-02-05T17:11:03;3.20;;;2.40;;
47329;SDS011;33060;50.178;7.570;2023-02-05T17:18:52;3.20;;;2.53;;
47329;SDS011;33060;50.178;7.570;2023-02-05T17:21:26;3.73;;;3.33;;
47329;SDS011;33060;50.178;7.570;2023-02-05T17:23:57;2.73;;;2.43;;
47329;SDS011;33060;50.178;7.570;2023-02-05T17:26:29;3.37;;;2.90;;
47329;SDS011;33060;50.178;7.570;2023-02-05T17:28:59;2.97;;;2.67;;
47329;SDS011;33060;50.178;7.570;2023-02-05T17:31:29;3.60;;;2.50;;
47329;SDS011;33060;50.178;7.570;2023-02-05T17:34:00;2.67;;;2.40;;
47329;SDS011;33060;50.178;7.570;2023-02-05T17:36:27;2.93;;;2.70;;
47329;SDS011;33060;50.178;7.570;2023-02-05T17:38:53;3.00;;;2.70;;
47329;SDS011;33060;50.178;7.570;2023-02-05T17:41:24;2.80;;;2.50;;
47329;SDS011;33060;50.178;7.570;2023-02-05T17:44:12;3.27;;;2.70;;